sensor_id;sensor_type;location;lat;lon;timestamp;pressure;altitude;pressure_sealevel;temperature;humidity
73151;BME280;61354;50.758;6.106;2022-12-11T00:00:44;98767.91;;;-1.66;100.00
73151;BME280;61354;50.758;6.106;2022-12-11T00:03:10;98761.91;;;-1.63;100.00
73151;BME280;61354;50.758;6.106;2022-12-11T00:05:38;98761.84;;;-1.58;99.98
73151;BME280;61354;50.758;6.106;2022-12-11T00:08:04;98766.72;;;-1.55;99.83
73151;BME280;61354;50.758;6.106;2022-12-11T00:10:30;98764.75;;;-1.50;99.48
73151;BME280;61354;50.758;6.106;2022-12-11T00:12:55;98774.38;;;-1.57;99.14
73151;BME280;61354;50.758;6.106;2022-12-11T00:15:21;98766.28;;;-1.67;99.40
73151;BME280;61354;50.758;6.106;2022-12-11T00:17:46;98767.09;;;-1.67;99.17
73151;BME280;61354;50.758;6.106;2022-12-11T00:20:12;98767.88;;;-1.61;99.24
73151;BME280;61354;50.758;6.106;2022-12-11T00:22:37;98770.31;;;-1.60;99.23
73151;BME280;61354;50.758;6.106;2022-12-11T00:25:03;98764.31;;;-1.62;99.22
73151;BME280;61354;50.758;6.106;2022-12-11T00:27:28;98770.00;;;-1.53;98.84
73151;BME280;61354;50.758;6.106;2022-12-11T00:29:54;98763.38;;;-1.47;98.35
73151;BME280;61354;50.758;6.106;2022-12-11T00:32:19;98765.69;;;-1.59;98.40
73151;BME280;61354;50.758;6.106;2022-12-11T00:34:45;98764.63;;;-1.63;98.81
73151;BME280;61354;50.758;6.106;2022-12-11T00:37:10;98756.75;;;-1.65;99.10
73151;BME280;61354;50.758;6.106;2022-12-11T00:39:36;98764.75;;;-1.73;99.41
73151;BME280;61354;50.758;6.106;2022-12-11T00:42:02;98760.34;;;-1.69;98.91
73151;BME280;61354;50.758;6.106;2022-12-11T00:44:27;98765.16;;;-1.61;98.60
73151;BME280;61354;50.758;6.106;2022-12-11T00:46:52;98759.53;;;-1.70;98.15
73151;BME280;61354;50.758;6.106;2022-12-11T00:49:18;98767.03;;;-1.57;98.44
73151;BME280;61354;50.758;6.106;2022-12-11T00:51:43;98763.94;;;-1.50;97.76
73151;BME280;61354;50.758;6.106;2022-12-11T00:54:09;98767.06;;;-1.62;98.02
73151;BME280;61354;50.758;6.106;2022-12-11T00:56:34;98765.69;;;-1.59;97.67
73151;BME280;61354;50.758;6.106;2022-12-11T00:59:00;98765.84;;;-1.51;98.31
73151;BME280;61354;50.758;6.106;2022-12-11T01:01:25;98770.50;;;-1.51;98.30
73151;BME280;61354;50.758;6.106;2022-12-11T01:03:51;98765.22;;;-1.42;98.41
73151;BME280;61354;50.758;6.106;2022-12-11T01:06:20;98773.16;;;-1.46;97.42
73151;BME280;61354;50.758;6.106;2022-12-11T01:08:46;98778.59;;;-1.41;97.82
73151;BME280;61354;50.758;6.106;2022-12-11T01:11:14;98777.97;;;-1.38;97.76
73151;BME280;61354;50.758;6.106;2022-12-11T01:13:40;98773.66;;;-1.39;97.36
73151;BME280;61354;50.758;6.106;2022-12-11T01:16:12;98779.03;;;-1.34;97.31
73151;BME280;61354;50.758;6.106;2022-12-11T01:18:38;98774.19;;;-1.37;97.40
73151;BME280;61354;50.758;6.106;2022-12-11T01:21:12;98775.06;;;-1.46;97.23
73151;BME280;61354;50.758;6.106;2022-12-11T01:23:38;98770.41;;;-1.41;98.03
73151;BME280;61354;50.758;6.106;2022-12-11T01:26:05;98774.56;;;-1.48;98.31
73151;BME280;61354;50.758;6.106;2022-12-11T01:28:31;98771.16;;;-1.35;98.07
73151;BME280;61354;50.758;6.106;2022-12-11T01:30:56;98768.81;;;-1.47;97.96
73151;BME280;61354;50.758;6.106;2022-12-11T01:33:22;98769.25;;;-1.35;97.93
73151;BME280;61354;50.758;6.106;2022-12-11T01:35:47;98766.63;;;-1.45;97.66
73151;BME280;61354;50.758;6.106;2022-12-11T01:38:12;98765.81;;;-1.45;98.43
73151;BME280;61354;50.758;6.106;2022-12-11T01:40:45;98755.69;;;-1.40;97.90
73151;BME280;61354;50.758;6.106;2022-12-11T01:43:10;98754.56;;;-1.39;98.00
73151;BME280;61354;50.758;6.106;2022-12-11T01:45:41;98750.38;;;-1.55;98.27
73151;BME280;61354;50.758;6.106;2022-12-11T01:48:21;98755.03;;;-1.56;98.31
73151;BME280;61354;50.758;6.106;2022-12-11T01:50:54;98752.72;;;-1.43;98.06
73151;BME280;61354;50.758;6.106;2022-12-11T01:53:41;98745.44;;;-1.48;97.48
73151;BME280;61354;50.758;6.106;2022-12-11T01:56:07;98736.09;;;-1.42;97.40
73151;BME280;61354;50.758;6.106;2022-12-11T01:58:46;98734.72;;;-1.39;97.38
73151;BME280;61354;50.758;6.106;2022-12-11T02:01:19;98734.47;;;-1.43;97.05
73151;BME280;61354;50.758;6.106;2022-12-11T02:03:46;98733.97;;;-1.45;97.03
73151;BME280;61354;50.758;6.106;2022-12-11T02:08:58;98733.47;;;-1.52;97.06
73151;BME280;61354;50.758;6.106;2022-12-11T02:11:38;98733.75;;;-1.54;97.13
73151;BME280;61354;50.758;6.106;2022-12-11T02:14:16;98734.06;;;-1.55;97.05
73151;BME280;61354;50.758;6.106;2022-12-11T02:16:49;98738.94;;;-1.52;96.58
73151;BME280;61354;50.758;6.106;2022-12-11T02:22:21;98736.72;;;-1.50;96.59
73151;BME280;61354;50.758;6.106;2022-12-11T02:27:44;98733.44;;;-1.47;96.65
73151;BME280;61354;50.758;6.106;2022-12-11T02:30:12;98729.19;;;-1.58;96.87
73151;BME280;61354;50.758;6.106;2022-12-11T02:32:54;98734.59;;;-1.53;97.06
73151;BME280;61354;50.758;6.106;2022-12-11T02:35:32;98737.31;;;-1.53;97.20
73151;BME280;61354;50.758;6.106;2022-12-11T02:38:06;98727.47;;;-1.49;96.96
73151;BME280;61354;50.758;6.106;2022-12-11T02:40:36;98733.53;;;-1.57;96.54
73151;BME280;61354;50.758;6.106;2022-12-11T02:43:07;98737.25;;;-1.48;96.40
73151;BME280;61354;50.758;6.106;2022-12-11T02:45:34;98731.75;;;-1.43;96.87
73151;BME280;61354;50.758;6.106;2022-12-11T02:48:04;98730.59;;;-1.37;96.66
73151;BME280;61354;50.758;6.106;2022-12-11T02:50:30;98732.72;;;-1.34;96.79
73151;BME280;61354;50.758;6.106;2022-12-11T02:52:59;98727.91;;;-1.42;96.62
73151;BME280;61354;50.758;6.106;2022-12-11T02:55:27;98726.22;;;-1.62;96.99
73151;BME280;61354;50.758;6.106;2022-12-11T02:58:16;98728.59;;;-1.55;97.47
73151;BME280;61354;50.758;6.106;2022-12-11T03:00:45;98722.22;;;-1.45;97.37
73151;BME280;61354;50.758;6.106;2022-12-11T03:03:11;98716.78;;;-1.45;97.46
73151;BME280;61354;50.758;6.106;2022-12-11T03:05:37;98716.09;;;-1.56;97.99
73151;BME280;61354;50.758;6.106;2022-12-11T03:08:03;98711.59;;;-1.66;97.91
73151;BME280;61354;50.758;6.106;2022-12-11T03:10:29;98707.31;;;-1.48;98.05
73151;BME280;61354;50.758;6.106;2022-12-11T03:12:56;98702.44;;;-1.51;98.09
73151;BME280;61354;50.758;6.106;2022-12-11T03:15:40;98702.38;;;-1.46;97.88
73151;BME280;61354;50.758;6.106;2022-12-11T03:18:25;98694.25;;;-1.51;98.20
73151;BME280;61354;50.758;6.106;2022-12-11T03:21:09;98693.97;;;-1.50;98.15
73151;BME280;61354;50.758;6.106;2022-12-11T03:24:00;98691.78;;;-1.47;98.34
73151;BME280;61354;50.758;6.106;2022-12-11T03:26:29;98689.13;;;-1.53;98.46
73151;BME280;61354;50.758;6.106;2022-12-11T03:29:03;98686.03;;;-1.46;98.30
73151;BME280;61354;50.758;6.106;2022-12-11T03:31:41;98685.53;;;-1.48;98.64
73151;BME280;61354;50.758;6.106;2022-12-11T03:34:15;98682.72;;;-1.43;98.30
73151;BME280;61354;50.758;6.106;2022-12-11T03:36:43;98689.56;;;-1.45;98.52
73151;BME280;61354;50.758;6.106;2022-12-11T03:39:15;98693.69;;;-1.48;98.32
73151;BME280;61354;50.758;6.106;2022-12-11T03:41:44;98690.31;;;-1.40;98.12
73151;BME280;61354;50.758;6.106;2022-12-11T03:44:11;98695.25;;;-1.42;98.21
73151;BME280;61354;50.758;6.106;2022-12-11T03:46:38;98692.59;;;-1.47;97.58
73151;BME280;61354;50.758;6.106;2022-12-11T03:49:13;98688.50;;;-1.50;97.58
73151;BME280;61354;50.758;6.106;2022-12-11T03:51:40;98688.97;;;-1.42;97.58
73151;BME280;61354;50.758;6.106;2022-12-11T03:54:07;98691.94;;;-1.39;97.83
73151;BME280;61354;50.758;6.106;2022-12-11T03:56:34;98676.72;;;-1.40;97.70
73151;BME280;61354;50.758;6.106;2022-12-11T03:59:01;98691.94;;;-1.39;98.03
73151;BME280;61354;50.758;6.106;2022-12-11T04:01:26;98699.31;;;-1.39;97.91
73151;BME280;61354;50.758;6.106;2022-12-11T04:03:52;98700.00;;;-1.53;98.27
73151;BME280;61354;50.758;6.106;2022-12-11T04:06:17;98707.38;;;-1.53;98.22
73151;BME280;61354;50.758;6.106;2022-12-11T04:08:42;98707.81;;;-1.46;97.65
73151;BME280;61354;50.758;6.106;2022-12-11T04:11:09;98707.56;;;-1.50;97.77
73151;BME280;61354;50.758;6.106;2022-12-11T04:13:53;98710.03;;;-1.48;97.80
73151;BME280;61354;50.758;6.106;2022-12-11T04:16:41;98701.97;;;-1.34;97.64
73151;BME280;61354;50.758;6.106;2022-12-11T04:19:07;98699.13;;;-1.48;97.94
73151;BME280;61354;50.758;6.106;2022-12-11T04:21:52;98701.06;;;-1.48;97.90
73151;BME280;61354;50.758;6.106;2022-12-11T04:24:37;98697.44;;;-1.44;98.51
73151;BME280;61354;50.758;6.106;2022-12-11T04:27:02;98696.03;;;-1.41;97.73
73151;BME280;61354;50.758;6.106;2022-12-11T04:29:28;98698.84;;;-1.46;97.91
73151;BME280;61354;50.758;6.106;2022-12-11T04:31:54;98696.34;;;-1.43;97.83
73151;BME280;61354;50.758;6.106;2022-12-11T04:34:19;98703.88;;;-1.59;98.13
73151;BME280;61354;50.758;6.106;2022-12-11T04:36:45;98695.25;;;-1.66;98.41
73151;BME280;61354;50.758;6.106;2022-12-11T04:39:10;98698.97;;;-1.57;98.56
73151;BME280;61354;50.758;6.106;2022-12-11T04:41:36;98696.41;;;-1.48;97.79
73151;BME280;61354;50.758;6.106;2022-12-11T04:44:03;98694.91;;;-1.59;97.81
73151;BME280;61354;50.758;6.106;2022-12-11T04:46:29;98682.28;;;-1.74;98.24
73151;BME280;61354;50.758;6.106;2022-12-11T04:48:55;98673.91;;;-1.59;98.51
73151;BME280;61354;50.758;6.106;2022-12-11T04:51:21;98678.09;;;-1.66;98.33
73151;BME280;61354;50.758;6.106;2022-12-11T04:53:46;98674.28;;;-1.65;98.38
73151;BME280;61354;50.758;6.106;2022-12-11T04:56:13;98671.59;;;-1.70;98.27
73151;BME280;61354;50.758;6.106;2022-12-11T04:58:40;98674.69;;;-1.77;98.27
73151;BME280;61354;50.758;6.106;2022-12-11T05:01:11;98680.78;;;-1.61;98.18
73151;BME280;61354;50.758;6.106;2022-12-11T05:03:37;98673.19;;;-1.64;97.88
73151;BME280;61354;50.758;6.106;2022-12-11T05:06:03;98671.47;;;-1.84;98.49
73151;BME280;61354;50.758;6.106;2022-12-11T05:08:29;98682.28;;;-1.74;98.21
73151;BME280;61354;50.758;6.106;2022-12-11T05:10:59;98678.09;;;-1.66;98.40
73151;BME280;61354;50.758;6.106;2022-12-11T05:13:26;98685.97;;;-1.65;98.12
73151;BME280;61354;50.758;6.106;2022-12-11T05:15:52;98687.09;;;-1.66;98.08
73151;BME280;61354;50.758;6.106;2022-12-11T05:18:17;98687.91;;;-1.65;97.84
73151;BME280;61354;50.758;6.106;2022-12-11T05:20:43;98687.94;;;-1.70;98.25
73151;BME280;61354;50.758;6.106;2022-12-11T05:23:09;98690.97;;;-2.01;98.29
73151;BME280;61354;50.758;6.106;2022-12-11T05:25:34;98683.66;;;-1.77;97.92
73151;BME280;61354;50.758;6.106;2022-12-11T05:27:59;98677.03;;;-1.70;97.76
73151;BME280;61354;50.758;6.106;2022-12-11T05:30:25;98679.50;;;-1.69;97.90
73151;BME280;61354;50.758;6.106;2022-12-11T05:32:51;98675.91;;;-1.64;97.39
73151;BME280;61354;50.758;6.106;2022-12-11T05:35:16;98682.25;;;-1.98;97.44
73151;BME280;61354;50.758;6.106;2022-12-11T05:37:41;98672.97;;;-1.97;97.90
73151;BME280;61354;50.758;6.106;2022-12-11T05:40:07;98670.88;;;-2.05;97.90
73151;BME280;61354;50.758;6.106;2022-12-11T05:42:33;98672.03;;;-2.11;98.08
73151;BME280;61354;50.758;6.106;2022-12-11T05:44:59;98672.84;;;-1.87;97.61
73151;BME280;61354;50.758;6.106;2022-12-11T05:47:24;98673.41;;;-1.85;97.37
73151;BME280;61354;50.758;6.106;2022-12-11T05:49:50;98665.22;;;-1.85;97.38
73151;BME280;61354;50.758;6.106;2022-12-11T05:52:16;98669.09;;;-1.91;97.22
73151;BME280;61354;50.758;6.106;2022-12-11T05:54:41;98669.00;;;-2.10;97.80
73151;BME280;61354;50.758;6.106;2022-12-11T05:57:07;98666.91;;;-1.89;97.60
73151;BME280;61354;50.758;6.106;2022-12-11T05:59:33;98661.97;;;-1.87;97.39
73151;BME280;61354;50.758;6.106;2022-12-11T06:01:58;98663.25;;;-1.79;97.32
73151;BME280;61354;50.758;6.106;2022-12-11T06:04:24;98664.59;;;-1.77;96.79
73151;BME280;61354;50.758;6.106;2022-12-11T06:06:53;98660.25;;;-1.78;97.30
73151;BME280;61354;50.758;6.106;2022-12-11T06:09:18;98661.06;;;-1.77;97.17
73151;BME280;61354;50.758;6.106;2022-12-11T06:11:43;98660.28;;;-1.83;96.54
73151;BME280;61354;50.758;6.106;2022-12-11T06:14:10;98656.75;;;-1.83;96.76
73151;BME280;61354;50.758;6.106;2022-12-11T06:16:36;98660.41;;;-1.93;96.59
73151;BME280;61354;50.758;6.106;2022-12-11T06:19:02;98649.53;;;-1.93;96.53
73151;BME280;61354;50.758;6.106;2022-12-11T06:21:29;98655.47;;;-1.91;96.53
73151;BME280;61354;50.758;6.106;2022-12-11T06:23:57;98654.09;;;-1.88;96.59
73151;BME280;61354;50.758;6.106;2022-12-11T06:26:23;98660.34;;;-1.88;96.83
73151;BME280;61354;50.758;6.106;2022-12-11T06:28:49;98659.13;;;-2.01;96.67
73151;BME280;61354;50.758;6.106;2022-12-11T06:31:16;98660.34;;;-1.88;96.65
73151;BME280;61354;50.758;6.106;2022-12-11T06:33:42;98659.31;;;-1.92;96.20
73151;BME280;61354;50.758;6.106;2022-12-11T06:36:13;98669.94;;;-1.95;96.48
73151;BME280;61354;50.758;6.106;2022-12-11T06:38:39;98668.47;;;-1.83;96.55
73151;BME280;61354;50.758;6.106;2022-12-11T06:41:06;98668.81;;;-1.89;96.31
73151;BME280;61354;50.758;6.106;2022-12-11T06:43:34;98670.13;;;-1.87;96.51
73151;BME280;61354;50.758;6.106;2022-12-11T06:46:13;98666.50;;;-1.77;95.96
73151;BME280;61354;50.758;6.106;2022-12-11T06:48:39;98663.56;;;-1.81;95.96
73151;BME280;61354;50.758;6.106;2022-12-11T06:51:07;98666.59;;;-1.87;95.92
73151;BME280;61354;50.758;6.106;2022-12-11T06:53:34;98662.56;;;-1.90;96.13
73151;BME280;61354;50.758;6.106;2022-12-11T06:56:04;98664.13;;;-1.84;96.20
73151;BME280;61354;50.758;6.106;2022-12-11T06:58:32;98664.06;;;-1.79;96.24
73151;BME280;61354;50.758;6.106;2022-12-11T07:00:58;98660.84;;;-1.81;96.18
73151;BME280;61354;50.758;6.106;2022-12-11T07:03:23;98666.03;;;-1.84;95.93
73151;BME280;61354;50.758;6.106;2022-12-11T07:05:49;98660.59;;;-1.84;95.90
73151;BME280;61354;50.758;6.106;2022-12-11T07:08:14;98662.56;;;-1.90;96.13
73151;BME280;61354;50.758;6.106;2022-12-11T07:10:41;98659.22;;;-1.82;96.24
73151;BME280;61354;50.758;6.106;2022-12-11T07:13:06;98662.81;;;-1.86;96.01
73151;BME280;61354;50.758;6.106;2022-12-11T07:15:32;98667.03;;;-1.75;95.71
73151;BME280;61354;50.758;6.106;2022-12-11T07:17:57;98671.66;;;-1.76;95.44
73151;BME280;61354;50.758;6.106;2022-12-11T07:20:23;98666.50;;;-1.77;95.72
73151;BME280;61354;50.758;6.106;2022-12-11T07:22:48;98670.03;;;-1.77;95.53
73151;BME280;61354;50.758;6.106;2022-12-11T07:25:14;98671.38;;;-1.74;95.74
73151;BME280;61354;50.758;6.106;2022-12-11T07:27:39;98676.53;;;-1.72;95.38
73151;BME280;61354;50.758;6.106;2022-12-11T07:30:06;98667.56;;;-1.73;95.18
73151;BME280;61354;50.758;6.106;2022-12-11T07:32:32;98674.28;;;-1.65;95.21
73151;BME280;61354;50.758;6.106;2022-12-11T07:34:58;98662.84;;;-1.67;94.67
73151;BME280;61354;50.758;6.106;2022-12-11T07:37:23;98657.94;;;-1.65;94.60
73151;BME280;61354;50.758;6.106;2022-12-11T07:39:49;98666.28;;;-1.81;94.09
73151;BME280;61354;50.758;6.106;2022-12-11T07:42:15;98667.03;;;-1.75;94.42
73151;BME280;61354;50.758;6.106;2022-12-11T07:44:40;98665.66;;;-1.72;94.17
73151;BME280;61354;50.758;6.106;2022-12-11T07:47:05;98669.91;;;-1.66;93.99
73151;BME280;61354;50.758;6.106;2022-12-11T07:49:31;98664.44;;;-1.61;93.95
73151;BME280;61354;50.758;6.106;2022-12-11T07:51:56;98669.88;;;-1.61;93.33
73151;BME280;61354;50.758;6.106;2022-12-11T07:54:22;98667.78;;;-1.69;93.22
73151;BME280;61354;50.758;6.106;2022-12-11T07:56:47;98667.19;;;-1.66;93.12
73151;BME280;61354;50.758;6.106;2022-12-11T07:59:13;98673.81;;;-1.72;92.64
73151;BME280;61354;50.758;6.106;2022-12-11T08:01:40;98670.78;;;-1.71;92.52
73151;BME280;61354;50.758;6.106;2022-12-11T08:04:09;98671.31;;;-1.69;92.81
73151;BME280;61354;50.758;6.106;2022-12-11T08:06:37;98676.47;;;-1.67;92.45
73151;BME280;61354;50.758;6.106;2022-12-11T08:09:06;98670.22;;;-1.68;92.62
73151;BME280;61354;50.758;6.106;2022-12-11T08:11:32;98668.53;;;-1.64;92.51
73151;BME280;61354;50.758;6.106;2022-12-11T08:13:58;98660.03;;;-1.57;92.39
73151;BME280;61354;50.758;6.106;2022-12-11T08:16:24;98655.63;;;-1.53;92.56
73151;BME280;61354;50.758;6.106;2022-12-11T08:18:50;98658.63;;;-1.55;92.33
73151;BME280;61354;50.758;6.106;2022-12-11T08:21:18;98663.25;;;-1.55;92.82
73151;BME280;61354;50.758;6.106;2022-12-11T08:23:44;98667.09;;;-1.56;93.22
73151;BME280;61354;50.758;6.106;2022-12-11T08:26:19;98675.19;;;-1.51;93.53
73151;BME280;61354;50.758;6.106;2022-12-11T08:28:44;98672.78;;;-1.53;93.55
73151;BME280;61354;50.758;6.106;2022-12-11T08:31:12;98674.72;;;-1.58;93.28
73151;BME280;61354;50.758;6.106;2022-12-11T08:33:38;98659.00;;;-1.61;92.42
73151;BME280;61354;50.758;6.106;2022-12-11T08:36:10;98666.69;;;-1.68;91.94
73151;BME280;61354;50.758;6.106;2022-12-11T08:38:36;98669.53;;;-1.55;92.80
73151;BME280;61354;50.758;6.106;2022-12-11T08:41:15;98668.00;;;-1.42;92.24
73151;BME280;61354;50.758;6.106;2022-12-11T08:43:41;98666.69;;;-1.44;91.49
73151;BME280;61354;50.758;6.106;2022-12-11T08:46:07;98669.19;;;-1.48;91.76
73151;BME280;61354;50.758;6.106;2022-12-11T08:48:34;98665.41;;;-1.52;91.32
73151;BME280;61354;50.758;6.106;2022-12-11T08:51:01;98666.97;;;-1.46;91.67
73151;BME280;61354;50.758;6.106;2022-12-11T08:53:28;98669.81;;;-1.56;91.99
73151;BME280;61354;50.758;6.106;2022-12-11T08:56:00;98666.63;;;-1.63;92.11
73151;BME280;61354;50.758;6.106;2022-12-11T08:58:26;98661.66;;;-1.56;91.69
73151;BME280;61354;50.758;6.106;2022-12-11T09:00:52;98663.56;;;-1.57;91.53
73151;BME280;61354;50.758;6.106;2022-12-11T09:03:18;98656.06;;;-1.46;92.07
73151;BME280;61354;50.758;6.106;2022-12-11T09:05:44;98667.56;;;-1.49;91.77
73151;BME280;61354;50.758;6.106;2022-12-11T09:08:09;98661.47;;;-1.65;91.70
73151;BME280;61354;50.758;6.106;2022-12-11T09:10:35;98661.06;;;-1.77;92.14
73151;BME280;61354;50.758;6.106;2022-12-11T09:13:00;98656.44;;;-1.77;92.45
73151;BME280;61354;50.758;6.106;2022-12-11T09:15:25;98662.38;;;-1.75;92.62
73151;BME280;61354;50.758;6.106;2022-12-11T09:17:51;98653.56;;;-1.61;92.33
73151;BME280;61354;50.758;6.106;2022-12-11T09:20:16;98655.75;;;-1.63;91.93
73151;BME280;61354;50.758;6.106;2022-12-11T09:22:42;98660.59;;;-1.60;91.84
73151;BME280;61354;50.758;6.106;2022-12-11T09:25:07;98650.94;;;-1.47;92.08
73151;BME280;61354;50.758;6.106;2022-12-11T09:27:34;98653.06;;;-1.44;91.75
73151;BME280;61354;50.758;6.106;2022-12-11T09:29:59;98648.84;;;-1.56;91.19
73151;BME280;61354;50.758;6.106;2022-12-11T09:32:25;98649.81;;;-1.46;91.47
73151;BME280;61354;50.758;6.106;2022-12-11T09:34:50;98656.38;;;-1.47;91.35
73151;BME280;61354;50.758;6.106;2022-12-11T09:37:16;98651.09;;;-1.39;91.83
73151;BME280;61354;50.758;6.106;2022-12-11T09:39:42;98655.38;;;-1.33;91.42
73151;BME280;61354;50.758;6.106;2022-12-11T09:44:56;98652.13;;;-1.35;91.39
73151;BME280;61354;50.758;6.106;2022-12-11T09:47:33;98649.78;;;-1.22;91.61
73151;BME280;61354;50.758;6.106;2022-12-11T09:50:27;98644.00;;;-1.16;91.48
73151;BME280;61354;50.758;6.106;2022-12-11T09:55:35;98649.25;;;-1.25;91.88
73151;BME280;61354;50.758;6.106;2022-12-11T10:04:00;98644.28;;;-1.17;90.69
73151;BME280;61354;50.758;6.106;2022-12-11T10:06:09;98646.19;;;-1.18;91.47
73151;BME280;61354;50.758;6.106;2022-12-11T10:11:48;98642.38;;;-0.98;91.33
73151;BME280;61354;50.758;6.106;2022-12-11T10:14:50;98638.63;;;-1.02;90.74
73151;BME280;61354;50.758;6.106;2022-12-11T10:17:33;98638.47;;;-0.92;89.59
73151;BME280;61354;50.758;6.106;2022-12-11T10:20:16;98637.56;;;-0.87;88.91
73151;BME280;61354;50.758;6.106;2022-12-11T10:22:43;98638.16;;;-0.71;88.67
73151;BME280;61354;50.758;6.106;2022-12-11T10:25:18;98632.00;;;-0.77;88.94
73151;BME280;61354;50.758;6.106;2022-12-11T10:27:44;98635.97;;;-0.69;89.36
73151;BME280;61354;50.758;6.106;2022-12-11T10:30:14;98629.94;;;-0.66;89.17
73151;BME280;61354;50.758;6.106;2022-12-11T10:33:01;98632.97;;;-0.54;88.73
73151;BME280;61354;50.758;6.106;2022-12-11T10:35:52;98629.75;;;-0.56;88.52
73151;BME280;61354;50.758;6.106;2022-12-11T10:38:31;98629.09;;;-0.67;89.00
73151;BME280;61354;50.758;6.106;2022-12-11T10:41:00;98627.88;;;-0.74;88.59
73151;BME280;61354;50.758;6.106;2022-12-11T10:43:33;98625.91;;;-0.55;89.05
73151;BME280;61354;50.758;6.106;2022-12-11T10:45:59;98625.31;;;-0.52;88.05
73151;BME280;61354;50.758;6.106;2022-12-11T10:48:24;98623.28;;;-0.60;87.60
73151;BME280;61354;50.758;6.106;2022-12-11T10:51:05;98614.63;;;-0.48;87.81
73151;BME280;61354;50.758;6.106;2022-12-11T10:53:33;98615.69;;;-0.31;87.35
73151;BME280;61354;50.758;6.106;2022-12-11T10:55:59;98613.88;;;-0.35;87.50
73151;BME280;61354;50.758;6.106;2022-12-11T10:58:28;98606.38;;;-0.30;87.42
73151;BME280;61354;50.758;6.106;2022-12-11T11:01:12;98609.31;;;-0.40;86.88
73151;BME280;61354;50.758;6.106;2022-12-11T11:06:18;98599.44;;;-0.22;87.65
73151;BME280;61354;50.758;6.106;2022-12-11T11:08:56;98602.28;;;-0.13;87.19
73151;BME280;61354;50.758;6.106;2022-12-11T11:13:47;98588.25;;;0.07;87.26
73151;BME280;61354;50.758;6.106;2022-12-11T11:16:16;98587.25;;;0.03;86.49
73151;BME280;61354;50.758;6.106;2022-12-11T11:19:04;98588.06;;;0.17;86.32
73151;BME280;61354;50.758;6.106;2022-12-11T11:21:31;98581.38;;;0.23;86.56
73151;BME280;61354;50.758;6.106;2022-12-11T11:23:58;98583.91;;;0.06;86.56
73151;BME280;61354;50.758;6.106;2022-12-11T11:26:23;98575.19;;;0.04;86.50
73151;BME280;61354;50.758;6.106;2022-12-11T11:29:22;98564.22;;;0.09;86.13
73151;BME280;61354;50.758;6.106;2022-12-11T11:31:49;98565.44;;;0.17;87.12
73151;BME280;61354;50.758;6.106;2022-12-11T11:34:19;98561.25;;;0.19;86.84
73151;BME280;61354;50.758;6.106;2022-12-11T11:36:55;98561.38;;;0.14;85.85
73151;BME280;61354;50.758;6.106;2022-12-11T11:44:35;98551.66;;;0.08;86.78
73151;BME280;61354;50.758;6.106;2022-12-11T11:47:15;98554.31;;;0.13;86.70
73151;BME280;61354;50.758;6.106;2022-12-11T11:52:28;98555.59;;;0.02;85.98
73151;BME280;61354;50.758;6.106;2022-12-11T11:57:31;98547.31;;;0.07;85.99
73151;BME280;61354;50.758;6.106;2022-12-11T12:00:21;98542.97;;;0.06;86.34
73151;BME280;61354;50.758;6.106;2022-12-11T12:03:01;98538.53;;;0.10;86.41
73151;BME280;61354;50.758;6.106;2022-12-11T12:05:36;98531.34;;;0.14;85.87
73151;BME280;61354;50.758;6.106;2022-12-11T12:08:13;98535.19;;;0.13;85.64
73151;BME280;61354;50.758;6.106;2022-12-11T12:10:47;98530.22;;;0.15;86.18
73151;BME280;61354;50.758;6.106;2022-12-11T12:13:29;98535.56;;;0.20;86.98
73151;BME280;61354;50.758;6.106;2022-12-11T12:15:59;98533.84;;;0.24;86.32
73151;BME280;61354;50.758;6.106;2022-12-11T12:21:13;98527.00;;;0.13;84.93
73151;BME280;61354;50.758;6.106;2022-12-11T12:24:06;98528.22;;;0.21;85.50
73151;BME280;61354;50.758;6.106;2022-12-11T12:26:36;98531.63;;;0.27;85.23
73151;BME280;61354;50.758;6.106;2022-12-11T12:31:59;98523.94;;;0.29;84.50
73151;BME280;61354;50.758;6.106;2022-12-11T12:48:23;98518.81;;;0.13;84.76
73151;BME280;61354;50.758;6.106;2022-12-11T12:50:51;98517.47;;;0.24;84.83
73151;BME280;61354;50.758;6.106;2022-12-11T12:53:22;98517.88;;;0.32;84.93
73151;BME280;61354;50.758;6.106;2022-12-11T12:55:49;98523.34;;;0.32;84.38
73151;BME280;61354;50.758;6.106;2022-12-11T12:58:39;98523.94;;;0.42;85.07
73151;BME280;61354;50.758;6.106;2022-12-11T13:03:56;98520.09;;;0.43;84.00
73151;BME280;61354;50.758;6.106;2022-12-11T13:06:43;98526.53;;;0.47;83.77
73151;BME280;61354;50.758;6.106;2022-12-11T13:09:22;98529.19;;;0.39;82.19
73151;BME280;61354;50.758;6.106;2022-12-11T13:11:50;98534.84;;;0.42;82.60
73151;BME280;61354;50.758;6.106;2022-12-11T13:16:45;98538.16;;;0.53;83.42
73151;BME280;61354;50.758;6.106;2022-12-11T13:22:16;98533.41;;;0.59;82.76
73151;BME280;61354;50.758;6.106;2022-12-11T13:27:35;98546.94;;;0.64;82.87
73151;BME280;61354;50.758;6.106;2022-12-11T13:30:07;98544.41;;;0.67;82.44
73151;BME280;61354;50.758;6.106;2022-12-11T13:35:19;98547.34;;;0.71;81.60
73151;BME280;61354;50.758;6.106;2022-12-11T13:37:48;98542.78;;;0.66;82.21
73151;BME280;61354;50.758;6.106;2022-12-11T13:40:27;98546.38;;;0.39;82.17
73151;BME280;61354;50.758;6.106;2022-12-11T13:43:02;98550.25;;;0.38;82.59
73151;BME280;61354;50.758;6.106;2022-12-11T13:45:42;98546.00;;;0.46;82.96
73151;BME280;61354;50.758;6.106;2022-12-11T13:48:22;98551.44;;;0.46;83.41
73151;BME280;61354;50.758;6.106;2022-12-11T13:50:50;98543.53;;;0.44;83.17
73151;BME280;61354;50.758;6.106;2022-12-11T13:53:18;98549.44;;;0.38;83.83
73151;BME280;61354;50.758;6.106;2022-12-11T13:55:45;98550.03;;;0.35;83.42
73151;BME280;61354;50.758;6.106;2022-12-11T13:58:18;98551.94;;;0.20;84.31
73151;BME280;61354;50.758;6.106;2022-12-11T14:00:53;98559.13;;;0.16;83.53
73151;BME280;61354;50.758;6.106;2022-12-11T14:03:21;98565.31;;;0.36;83.78
73151;BME280;61354;50.758;6.106;2022-12-11T14:05:47;98557.91;;;0.36;84.63
73151;BME280;61354;50.758;6.106;2022-12-11T14:08:20;98558.41;;;0.24;84.17
73151;BME280;61354;50.758;6.106;2022-12-11T14:10:53;98562.19;;;0.15;84.14
73151;BME280;61354;50.758;6.106;2022-12-11T14:13:24;98568.84;;;0.22;84.39
73151;BME280;61354;50.758;6.106;2022-12-11T14:15:51;98568.16;;;0.17;84.51
73151;BME280;61354;50.758;6.106;2022-12-11T14:18:22;98568.03;;;0.22;85.46
73151;BME280;61354;50.758;6.106;2022-12-11T14:20:59;98564.00;;;0.06;84.62
73151;BME280;61354;50.758;6.106;2022-12-11T14:23:27;98565.22;;;0.13;84.96
73151;BME280;61354;50.758;6.106;2022-12-11T14:28:22;98567.84;;;0.18;85.57